Time;durP1;ratioP1;P1;durP2;ratioP2;P2;SDS_P1;SDS_P2;PMS_P1;PMS_P2;Temp;Humidity;BMP_temperature;BMP_pressure;BME280_temperature;BME280_humidity;BME280_pressure;Samples;Min_cycle;Max_cycle;Signal;HPM_P1;HPM_P2
2024/01/08 00:01:03;;;;;;;15.93;8.10;;;;;;;;;;4955736;28;20282;-72
2024/01/08 00:03:29;;;;;;;14.80;7.90;;;;;;;;;;4962874;28;20230;-73
2024/01/08 00:05:54;;;;;;;14.77;7.80;;;;;;;;;;4958981;28;20248;-74
2024/01/08 00:08:20;;;;;;;15.80;7.73;;;;;;;;;;4961809;28;20705;-73
2024/01/08 00:10:45;;;;;;;14.37;7.53;;;;;;;;;;4965977;28;21011;-73
2024/01/08 00:13:10;;;;;;;13.73;7.33;;;;;;;;;;4960222;28;20235;-73
2024/01/08 00:15:36;;;;;;;14.33;7.43;;;;;;;;;;4953000;28;20234;-73
2024/01/08 00:18:01;;;;;;;14.40;7.00;;;;;;;;;;4956351;28;20220;-73
2024/01/08 00:20:26;;;;;;;11.83;6.60;;;;;;;;;;4954582;28;20239;-73
2024/01/08 00:22:52;;;;;;;12.03;5.97;;;;;;;;;;4957924;28;20298;-73
2024/01/08 00:25:21;;;;;;;13.03;5.53;;;;;;;;;;4963828;28;20343;-74
2024/01/08 00:27:46;;;;;;;9.97;4.83;;;;;;;;;;4964129;28;20224;-73
2024/01/08 00:30:12;;;;;;;9.10;4.40;;;;;;;;;;4958118;28;20224;-73
2024/01/08 00:32:37;;;;;;;7.53;4.43;;;;;;;;;;4964608;28;20326;-73
2024/01/08 00:35:04;;;;;;;8.60;3.97;;;;;;;;;;4956260;28;20619;-73
2024/01/08 00:37:29;;;;;;;8.63;3.77;;;;;;;;;;4947253;28;20324;-74
2024/01/08 00:39:55;;;;;;;9.03;4.10;;;;;;;;;;4958312;28;20315;-74
2024/01/08 00:42:20;;;;;;;6.90;3.63;;;;;;;;;;4947517;28;20324;-73
2024/01/08 00:44:45;;;;;;;5.93;3.60;;;;;;;;;;4948229;28;20224;-73
2024/01/08 00:47:10;;;;;;;5.27;3.40;;;;;;;;;;4964935;28;20216;-73
2024/01/08 00:49:36;;;;;;;5.90;2.83;;;;;;;;;;4961288;28;20306;-73
2024/01/08 00:52:01;;;;;;;6.47;3.03;;;;;;;;;;4963107;28;20220;-73
2024/01/08 00:54:26;;;;;;;3.87;2.73;;;;;;;;;;4963783;28;20244;-73
2024/01/08 00:56:52;;;;;;;5.47;2.90;;;;;;;;;;4957881;28;20807;-73
2024/01/08 00:59:17;;;;;;;7.00;3.23;;;;;;;;;;4965423;28;20572;-73
2024/01/08 01:01:42;;;;;;;4.77;3.10;;;;;;;;;;4965296;28;20612;-73
2024/01/08 01:04:08;;;;;;;5.17;3.13;;;;;;;;;;4963272;28;20220;-73
2024/01/08 01:06:33;;;;;;;6.57;3.10;;;;;;;;;;4947516;28;20247;-73
2024/01/08 01:08:58;;;;;;;6.73;3.20;;;;;;;;;;4960111;28;20224;-73
2024/01/08 01:11:24;;;;;;;5.93;3.27;;;;;;;;;;4956415;28;20232;-73
2024/01/08 01:13:49;;;;;;;6.53;3.30;;;;;;;;;;4954817;28;20235;-73
2024/01/08 01:16:14;;;;;;;5.47;3.13;;;;;;;;;;4942730;28;20240;-73
2024/01/08 01:18:40;;;;;;;5.43;3.50;;;;;;;;;;4963349;28;20235;-73
2024/01/08 01:21:05;;;;;;;6.97;4.50;;;;;;;;;;4962594;28;20232;-73
2024/01/08 01:23:31;;;;;;;8.20;4.27;;;;;;;;;;4962279;28;20227;-73
2024/01/08 01:25:57;;;;;;;7.80;4.70;;;;;;;;;;4963539;28;20224;-73
2024/01/08 01:28:22;;;;;;;9.77;5.10;;;;;;;;;;4956119;28;20224;-74
2024/01/08 01:30:47;;;;;;;8.20;4.90;;;;;;;;;;4962812;28;20272;-74
2024/01/08 01:33:12;;;;;;;9.67;5.40;;;;;;;;;;4958483;28;20281;-73
2024/01/08 01:35:38;;;;;;;8.27;5.27;;;;;;;;;;4953911;28;20290;-74
2024/01/08 01:38:03;;;;;;;9.30;5.63;;;;;;;;;;4965030;28;20224;-74
2024/01/08 01:40:28;;;;;;;8.93;5.70;;;;;;;;;;4968173;28;20299;-74
2024/01/08 01:42:57;;;;;;;11.70;5.90;;;;;;;;;;4963231;28;20231;-74
2024/01/08 01:45:22;;;;;;;12.20;6.03;;;;;;;;;;4963795;28;20307;-74
2024/01/08 01:47:48;;;;;;;10.30;6.03;;;;;;;;;;4958480;28;20315;-74
2024/01/08 01:50:13;;;;;;;11.23;6.53;;;;;;;;;;4956765;28;20220;-73
2024/01/08 01:52:39;;;;;;;11.80;6.97;;;;;;;;;;4964371;28;20216;-72
2024/01/08 01:55:05;;;;;;;10.73;6.83;;;;;;;;;;4946644;28;20354;-73
2024/01/08 01:57:30;;;;;;;11.97;6.90;;;;;;;;;;4963669;28;20714;-73
2024/01/08 01:59:56;;;;;;;12.13;7.00;;;;;;;;;;4954104;28;20235;-74
2024/01/08 02:02:24;;;;;;;11.23;6.77;;;;;;;;;;4955293;28;20278;-73
2024/01/08 02:04:50;;;;;;;11.50;7.20;;;;;;;;;;4955600;28;20220;-73
2024/01/08 02:07:16;;;;;;;11.83;7.00;;;;;;;;;;4946517;28;20426;-73
2024/01/08 02:09:41;;;;;;;11.70;6.73;;;;;;;;;;4962665;28;20224;-73
2024/01/08 02:12:06;;;;;;;12.57;7.10;;;;;;;;;;4963956;28;20282;-73
2024/01/08 02:14:32;;;;;;;11.50;7.13;;;;;;;;;;4960907;28;20236;-73
2024/01/08 02:16:57;;;;;;;12.77;7.20;;;;;;;;;;4962839;28;20237;-73
2024/01/08 02:19:22;;;;;;;10.87;6.47;;;;;;;;;;4958097;28;20290;-72
2024/01/08 02:21:49;;;;;;;10.17;6.37;;;;;;;;;;4957632;28;20251;-72
2024/01/08 02:24:14;;;;;;;12.30;6.87;;;;;;;;;;4963618;28;21575;-72
2024/01/08 02:26:40;;;;;;;10.50;6.07;;;;;;;;;;4960397;28;20223;-73
2024/01/08 02:29:05;;;;;;;10.63;6.00;;;;;;;;;;4945739;28;20319;-73
2024/01/08 02:31:31;;;;;;;9.90;5.80;;;;;;;;;;4946388;28;20236;-73
2024/01/08 02:33:56;;;;;;;10.97;5.83;;;;;;;;;;4958158;28;20346;-73
2024/01/08 02:36:21;;;;;;;10.73;5.97;;;;;;;;;;4956979;28;20220;-73
2024/01/08 02:38:47;;;;;;;11.30;6.07;;;;;;;;;;4946873;28;20658;-72
2024/01/08 02:41:12;;;;;;;9.43;5.40;;;;;;;;;;4962132;28;20224;-73
2024/01/08 02:43:37;;;;;;;7.80;5.20;;;;;;;;;;4963091;28;20224;-73
2024/01/08 02:46:03;;;;;;;8.47;5.60;;;;;;;;;;4959102;28;20793;-73
2024/01/08 02:48:28;;;;;;;8.13;4.93;;;;;;;;;;4946138;28;20860;-73
2024/01/08 02:50:53;;;;;;;8.17;5.00;;;;;;;;;;4960120;28;20278;-73
2024/01/08 02:53:19;;;;;;;7.53;5.07;;;;;;;;;;4968989;28;20244;-73
2024/01/08 02:55:44;;;;;;;7.67;4.90;;;;;;;;;;4973902;28;20223;-73
2024/01/08 02:58:09;;;;;;;6.73;4.70;;;;;;;;;;4966447;28;20254;-74
2024/01/08 03:00:35;;;;;;;6.73;4.87;;;;;;;;;;4958952;28;20227;-73
2024/01/08 03:03:00;;;;;;;7.50;4.90;;;;;;;;;;4950040;28;20247;-73
2024/01/08 03:05:25;;;;;;;7.60;4.60;;;;;;;;;;4954243;28;20220;-73
2024/01/08 03:07:51;;;;;;;7.23;4.90;;;;;;;;;;4966201;28;20331;-73
2024/01/08 03:10:16;;;;;;;8.87;4.37;;;;;;;;;;4966646;28;20224;-73
2024/01/08 03:12:41;;;;;;;7.50;4.40;;;;;;;;;;4966196;28;20710;-73
2024/01/08 03:15:07;;;;;;;8.00;4.30;;;;;;;;;;4965741;28;20240;-74
2024/01/08 03:17:32;;;;;;;6.67;4.60;;;;;;;;;;4967316;28;20243;-73
2024/01/08 03:19:57;;;;;;;6.30;4.20;;;;;;;;;;4958487;28;20753;-72
2024/01/08 03:22:23;;;;;;;5.80;4.20;;;;;;;;;;4967389;28;20231;-74
2024/01/08 03:24:48;;;;;;;7.50;5.10;;;;;;;;;;4960120;28;20342;-74
2024/01/08 03:27:13;;;;;;;7.50;4.53;;;;;;;;;;4966171;28;20673;-73
2024/01/08 03:29:40;;;;;;;8.43;5.00;;;;;;;;;;4955493;28;20691;-73
2024/01/08 03:32:05;;;;;;;6.67;4.60;;;;;;;;;;4965498;28;20226;-73
2024/01/08 03:34:30;;;;;;;6.43;4.57;;;;;;;;;;4960324;28;20235;-73
2024/01/08 03:36:56;;;;;;;7.10;4.67;;;;;;;;;;4949526;28;20776;-73
2024/01/08 03:39:21;;;;;;;7.43;4.57;;;;;;;;;;4962082;28;20223;-74
2024/01/08 03:41:47;;;;;;;6.83;4.70;;;;;;;;;;4967206;28;20216;-73
2024/01/08 03:44:14;;;;;;;7.20;5.10;;;;;;;;;;4966096;28;20259;-73
2024/01/08 03:46:39;;;;;;;7.00;4.80;;;;;;;;;;4966862;28;20307;-74
2024/01/08 03:49:04;;;;;;;8.00;5.20;;;;;;;;;;4952859;28;20250;-73
2024/01/08 03:51:33;;;;;;;8.03;5.33;;;;;;;;;;4961596;28;20305;-74
2024/01/08 03:53:58;;;;;;;7.33;5.20;;;;;;;;;;4949374;28;20327;-74
2024/01/08 03:56:24;;;;;;;8.70;5.67;;;;;;;;;;4960382;28;20331;-73
2024/01/08 03:58:50;;;;;;;9.20;5.60;;;;;;;;;;4965196;28;20311;-74
2024/01/08 04:01:15;;;;;;;9.37;5.80;;;;;;;;;;4966498;28;20236;-74
2024/01/08 04:03:41;;;;;;;9.27;6.17;;;;;;;;;;4966714;28;20584;-74
2024/01/08 04:06:06;;;;;;;8.93;5.70;;;;;;;;;;4947532;28;20247;-74
2024/01/08 04:08:31;;;;;;;10.77;6.20;;;;;;;;;;4958183;28;20851;-75
2024/01/08 04:10:57;;;;;;;8.70;5.50;;;;;;;;;;4966655;28;20239;-74
2024/01/08 04:13:22;;;;;;;9.90;6.03;;;;;;;;;;4961042;28;20240;-73
2024/01/08 04:15:47;;;;;;;10.47;6.37;;;;;;;;;;4959518;28;21058;-74
2024/01/08 04:18:13;;;;;;;9.47;6.20;;;;;;;;;;4964273;28;20254;-74
2024/01/08 04:20:39;;;;;;;11.40;6.50;;;;;;;;;;4949512;28;20236;-74
2024/01/08 04:23:04;;;;;;;10.73;6.50;;;;;;;;;;4965513;28;20234;-73
2024/01/08 04:25:29;;;;;;;10.33;6.40;;;;;;;;;;4964832;28;20228;-73
2024/01/08 04:27:55;;;;;;;9.80;6.53;;;;;;;;;;4956357;28;20224;-74
2024/01/08 04:30:20;;;;;;;11.97;6.67;;;;;;;;;;4964345;28;20259;-74
2024/01/08 04:32:45;;;;;;;10.20;6.30;;;;;;;;;;4965739;28;20228;-72
2024/01/08 04:35:11;;;;;;;8.43;5.30;;;;;;;;;;4947871;28;20817;-73
2024/01/08 04:37:36;;;;;;;8.03;4.97;;;;;;;;;;4960067;28;20220;-73
2024/01/08 04:40:02;;;;;;;8.47;4.40;;;;;;;;;;4958410;28;20243;-72
2024/01/08 04:42:28;;;;;;;6.00;3.87;;;;;;;;;;4963351;28;20318;-73
2024/01/08 04:44:53;;;;;;;4.53;3.00;;;;;;;;;;4965463;28;20363;-73
2024/01/08 04:47:19;;;;;;;4.00;2.83;;;;;;;;;;4958099;28;20311;-73
2024/01/08 04:49:44;;;;;;;3.30;2.23;;;;;;;;;;4962911;28;20829;-73
2024/01/08 04:52:09;;;;;;;3.13;2.13;;;;;;;;;;4940246;28;20331;-73
2024/01/08 04:54:35;;;;;;;2.67;2.00;;;;;;;;;;4964249;28;20255;-73
2024/01/08 04:57:00;;;;;;;3.00;2.00;;;;;;;;;;4960703;28;20231;-73
2024/01/08 04:59:25;;;;;;;2.20;1.80;;;;;;;;;;4963820;28;20291;-73
2024/01/08 05:01:51;;;;;;;2.77;1.80;;;;;;;;;;4964136;28;20224;-74
2024/01/08 05:04:16;;;;;;;2.17;1.90;;;;;;;;;;4964115;28;20231;-74
2024/01/08 05:06:42;;;;;;;2.37;1.77;;;;;;;;;;4945833;28;20247;-73
2024/01/08 05:09:08;;;;;;;2.67;2.00;;;;;;;;;;4947083;28;20308;-73
2024/01/08 05:11:34;;;;;;;2.53;1.90;;;;;;;;;;4964354;28;20235;-73
2024/01/08 05:13:59;;;;;;;3.13;2.00;;;;;;;;;;4958006;28;20275;-72
2024/01/08 05:16:24;;;;;;;2.50;1.80;;;;;;;;;;4959923;28;20787;-72
2024/01/08 05:18:50;;;;;;;3.03;2.10;;;;;;;;;;4947194;28;20243;-72
2024/01/08 05:21:15;;;;;;;2.30;2.10;;;;;;;;;;4961932;28;20238;-71
2024/01/08 05:23:40;;;;;;;2.53;2.00;;;;;;;;;;4964262;28;20220;-72
2024/01/08 05:26:06;;;;;;;2.53;2.10;;;;;;;;;;4953046;28;20229;-72
2024/01/08 05:28:31;;;;;;;2.63;2.13;;;;;;;;;;4943753;28;20285;-71
2024/01/08 05:30:57;;;;;;;3.33;2.20;;;;;;;;;;4962225;28;20224;-72
2024/01/08 05:33:22;;;;;;;3.10;2.27;;;;;;;;;;4962912;28;20236;-72
2024/01/08 05:35:47;;;;;;;3.13;2.40;;;;;;;;;;4959868;28;20262;-71
2024/01/08 05:38:13;;;;;;;2.97;2.30;;;;;;;;;;4963792;28;20224;-71
2024/01/08 05:40:38;;;;;;;2.63;2.40;;;;;;;;;;4961599;28;20267;-70
2024/01/08 05:43:03;;;;;;;4.20;2.70;;;;;;;;;;4945497;28;20246;-71
2024/01/08 05:45:29;;;;;;;3.03;2.40;;;;;;;;;;4961602;28;20310;-72
2024/01/08 05:47:55;;;;;;;3.00;2.43;;;;;;;;;;4947516;28;20234;-71
2024/01/08 05:50:21;;;;;;;3.20;2.27;;;;;;;;;;4951578;28;20364;-71
2024/01/08 05:52:46;;;;;;;2.97;2.50;;;;;;;;;;4964363;28;20234;-71
2024/01/08 05:55:14;;;;;;;3.10;2.70;;;;;;;;;;4960693;28;20227;-71
2024/01/08 05:57:40;;;;;;;2.50;2.30;;;;;;;;;;4963139;28;20223;-70
2024/01/08 06:00:05;;;;;;;2.90;2.60;;;;;;;;;;4963687;28;20238;-71
2024/01/08 06:02:31;;;;;;;3.70;2.63;;;;;;;;;;4964557;28;20224;-72
2024/01/08 06:04:56;;;;;;;3.80;2.70;;;;;;;;;;4964704;28;20232;-71
2024/01/08 06:07:22;;;;;;;3.40;2.80;;;;;;;;;;4962905;28;20236;-71
2024/01/08 06:09:47;;;;;;;3.50;2.93;;;;;;;;;;4964873;28;20235;-72
2024/01/08 06:12:12;;;;;;;3.90;2.83;;;;;;;;;;4946212;28;20235;-72
2024/01/08 06:14:39;;;;;;;3.03;2.73;;;;;;;;;;4963006;28;20629;-72
2024/01/08 06:17:04;;;;;;;3.40;2.80;;;;;;;;;;4947507;28;20220;-72
2024/01/08 06:19:29;;;;;;;4.10;3.00;;;;;;;;;;4946352;28;20619;-72
2024/01/08 06:21:55;;;;;;;4.30;3.10;;;;;;;;;;4946629;28;20215;-71
2024/01/08 06:24:20;;;;;;;3.87;3.00;;;;;;;;;;4964554;28;20623;-72
2024/01/08 06:26:45;;;;;;;4.47;3.30;;;;;;;;;;4960226;28;20601;-71
2024/01/08 06:29:11;;;;;;;3.73;3.10;;;;;;;;;;4947758;28;20216;-71
2024/01/08 06:31:37;;;;;;;4.70;2.87;;;;;;;;;;4962779;28;20611;-72
2024/01/08 06:34:02;;;;;;;3.40;2.90;;;;;;;;;;4968377;28;20282;-71
2024/01/08 06:36:27;;;;;;;6.03;3.10;;;;;;;;;;4967415;28;20916;-71
2024/01/08 06:38:53;;;;;;;5.33;3.10;;;;;;;;;;4958882;28;20236;-71
2024/01/08 06:41:18;;;;;;;5.40;3.23;;;;;;;;;;4960880;28;20323;-72
2024/01/08 06:43:44;;;;;;;5.00;3.30;;;;;;;;;;4951156;28;20220;-71
2024/01/08 06:46:09;;;;;;;4.57;3.30;;;;;;;;;;4966345;28;20290;-71
2024/01/08 06:48:34;;;;;;;5.57;3.50;;;;;;;;;;4950049;28;20395;-72
2024/01/08 06:51:01;;;;;;;4.10;3.53;;;;;;;;;;4967635;28;20228;-72
2024/01/08 06:53:26;;;;;;;3.87;3.20;;;;;;;;;;4960447;28;20791;-73
2024/01/08 06:55:52;;;;;;;8.03;3.40;;;;;;;;;;4950101;28;20224;-73
2024/01/08 06:58:17;;;;;;;5.47;3.40;;;;;;;;;;4962827;28;20950;-72
2024/01/08 07:00:42;;;;;;;4.67;3.33;;;;;;;;;;4965585;28;20228;-73
2024/01/08 07:03:08;;;;;;;5.53;3.27;;;;;;;;;;4967733;28;20228;-72
2024/01/08 07:05:33;;;;;;;4.20;3.20;;;;;;;;;;4949800;28;20227;-71
2024/01/08 07:07:59;;;;;;;5.70;3.17;;;;;;;;;;4962499;28;20224;-71
2024/01/08 07:10:25;;;;;;;3.70;2.83;;;;;;;;;;4959339;28;20251;-71
2024/01/08 07:12:50;;;;;;;4.43;3.30;;;;;;;;;;4965050;28;20258;-71
2024/01/08 07:15:34;;;;;;;4.57;3.07;;;;;;;;;;4949134;28;20294;-72
2024/01/08 07:17:59;;;;;;;5.63;3.20;;;;;;;;;;4967046;28;20302;-71
2024/01/08 07:20:25;;;;;;;4.23;3.00;;;;;;;;;;4965840;28;20343;-71
2024/01/08 07:22:51;;;;;;;4.90;3.20;;;;;;;;;;4949165;28;20644;-72
2024/01/08 07:25:16;;;;;;;3.93;3.10;;;;;;;;;;4964641;28;20717;-71
2024/01/08 07:27:41;;;;;;;6.23;3.40;;;;;;;;;;4965898;28;20267;-72
2024/01/08 07:30:09;;;;;;;3.80;3.00;;;;;;;;;;4948335;28;20291;-72
2024/01/08 07:32:35;;;;;;;4.27;2.93;;;;;;;;;;4981294;28;20215;-73
2024/01/08 07:35:02;;;;;;;4.30;3.00;;;;;;;;;;4966816;28;20231;-73
2024/01/08 07:37:27;;;;;;;3.80;3.07;;;;;;;;;;4957561;28;20220;-73
2024/01/08 07:39:52;;;;;;;4.60;3.30;;;;;;;;;;4947936;28;20223;-73
2024/01/08 07:42:18;;;;;;;5.03;3.30;;;;;;;;;;4958788;28;20319;-74
2024/01/08 07:44:43;;;;;;;4.93;3.50;;;;;;;;;;4957253;28;20320;-73
2024/01/08 07:47:08;;;;;;;4.53;3.40;;;;;;;;;;4962188;28;20275;-73
2024/01/08 07:49:34;;;;;;;5.00;3.87;;;;;;;;;;4965532;28;20282;-73
2024/01/08 07:51:59;;;;;;;6.00;4.40;;;;;;;;;;4961219;28;20216;-73
2024/01/08 07:54:24;;;;;;;6.40;3.63;;;;;;;;;;4965550;28;20248;-73
2024/01/08 07:56:50;;;;;;;6.17;3.80;;;;;;;;;;4949450;28;20303;-73
2024/01/08 07:59:15;;;;;;;5.67;3.83;;;;;;;;;;4956766;28;20327;-72
2024/01/08 08:01:40;;;;;;;6.03;3.73;;;;;;;;;;4959413;28;20224;-73
2024/01/08 08:04:06;;;;;;;6.43;4.10;;;;;;;;;;4948690;28;20220;-73
2024/01/08 08:06:31;;;;;;;5.23;3.53;;;;;;;;;;4948662;28;20236;-72
2024/01/08 08:08:56;;;;;;;5.63;3.80;;;;;;;;;;4966121;28;20230;-72
2024/01/08 08:11:22;;;;;;;5.27;3.67;;;;;;;;;;4965809;28;20236;-72
2024/01/08 08:13:47;;;;;;;5.87;3.60;;;;;;;;;;4960343;28;20294;-72
2024/01/08 08:16:13;;;;;;;5.87;3.80;;;;;;;;;;4965670;28;20322;-73
2024/01/08 08:18:39;;;;;;;7.30;3.73;;;;;;;;;;4946221;28;20663;-73
2024/01/08 08:21:04;;;;;;;6.77;3.90;;;;;;;;;;4948639;28;20724;-74
2024/01/08 08:23:31;;;;;;;6.37;4.00;;;;;;;;;;4959757;28;20223;-73
2024/01/08 08:25:56;;;;;;;5.63;3.67;;;;;;;;;;4961290;28;20235;-72
2024/01/08 08:28:21;;;;;;;6.03;3.67;;;;;;;;;;4947992;28;20603;-72
2024/01/08 08:30:47;;;;;;;5.20;3.40;;;;;;;;;;4959299;28;20228;-73
2024/01/08 08:33:12;;;;;;;6.10;3.60;;;;;;;;;;4948331;28;21029;-72
2024/01/08 08:35:38;;;;;;;5.87;3.20;;;;;;;;;;4956440;28;20301;-72
2024/01/08 08:38:04;;;;;;;4.93;3.00;;;;;;;;;;4948699;28;20224;-73
2024/01/08 08:40:29;;;;;;;4.00;3.00;;;;;;;;;;4965415;28;20318;-73
2024/01/08 08:42:54;;;;;;;4.80;3.33;;;;;;;;;;4965638;28;20224;-73
2024/01/08 08:45:20;;;;;;;4.77;3.20;;;;;;;;;;4963738;28;20235;-73
2024/01/08 08:47:45;;;;;;;4.23;3.10;;;;;;;;;;4960330;28;20227;-73
2024/01/08 08:50:12;;;;;;;5.23;3.53;;;;;;;;;;4947521;28;20231;-74
2024/01/08 08:52:37;;;;;;;4.60;3.23;;;;;;;;;;4964861;28;20220;-73
2024/01/08 08:55:04;;;;;;;4.53;3.17;;;;;;;;;;4954619;28;20255;-73
2024/01/08 08:57:29;;;;;;;6.00;3.53;;;;;;;;;;4955273;28;20227;-73
2024/01/08 08:59:55;;;;;;;5.53;3.80;;;;;;;;;;4957999;28;20232;-73
2024/01/08 09:02:20;;;;;;;5.10;3.40;;;;;;;;;;4958566;28;20627;-75
2024/01/08 09:04:47;;;;;;;4.57;3.20;;;;;;;;;;4944945;28;20476;-71
2024/01/08 09:07:12;;;;;;;5.03;3.57;;;;;;;;;;4963404;28;20296;-72
2024/01/08 09:09:38;;;;;;;8.53;4.50;;;;;;;;;;4954342;28;20319;-74
2024/01/08 09:12:03;;;;;;;8.73;4.60;;;;;;;;;;4959299;28;20224;-73
2024/01/08 09:14:29;;;;;;;6.50;4.20;;;;;;;;;;4963253;28;20245;-73
2024/01/08 09:16:54;;;;;;;7.13;4.00;;;;;;;;;;4958842;28;20231;-74
2024/01/08 09:19:19;;;;;;;7.07;4.70;;;;;;;;;;4941451;28;20228;-73
2024/01/08 09:21:46;;;;;;;5.87;3.97;;;;;;;;;;4955839;28;20749;-74
2024/01/08 09:24:11;;;;;;;6.07;3.53;;;;;;;;;;4947165;28;20227;-73
2024/01/08 09:26:37;;;;;;;5.77;3.50;;;;;;;;;;4956926;28;20985;-72
2024/01/08 09:29:02;;;;;;;5.13;3.50;;;;;;;;;;4964059;28;20220;-73
2024/01/08 09:31:27;;;;;;;5.57;3.47;;;;;;;;;;4962328;28;20228;-73
2024/01/08 09:33:53;;;;;;;6.83;3.40;;;;;;;;;;4963581;28;20224;-72
2024/01/08 09:36:18;;;;;;;5.23;3.70;;;;;;;;;;4962408;28;20318;-73
2024/01/08 09:38:46;;;;;;;7.10;4.10;;;;;;;;;;4964053;28;20342;-73
2024/01/08 09:41:12;;;;;;;9.53;4.27;;;;;;;;;;4959515;28;20227;-73
2024/01/08 09:43:38;;;;;;;6.13;3.80;;;;;;;;;;4956542;28;20220;-73
2024/01/08 09:46:07;;;;;;;6.50;3.70;;;;;;;;;;4963065;28;20637;-73
2024/01/08 09:48:34;;;;;;;6.30;3.47;;;;;;;;;;4947476;28;20672;-73
2024/01/08 09:51:00;;;;;;;5.63;3.20;;;;;;;;;;4952782;28;20224;-73
2024/01/08 09:53:26;;;;;;;6.97;3.37;;;;;;;;;;4946136;28;20246;-74
2024/01/08 09:55:52;;;;;;;5.83;3.70;;;;;;;;;;4959281;28;20271;-74
2024/01/08 09:58:17;;;;;;;4.87;3.33;;;;;;;;;;4959834;28;20725;-72
2024/01/08 10:00:43;;;;;;;4.83;3.00;;;;;;;;;;4960626;28;20223;-73
2024/01/08 10:03:08;;;;;;;4.87;3.00;;;;;;;;;;4953921;28;20306;-73
2024/01/08 10:05:34;;;;;;;6.43;3.37;;;;;;;;;;4964925;28;20224;-73
2024/01/08 10:08:00;;;;;;;5.20;3.30;;;;;;;;;;4964536;28;20228;-72
2024/01/08 10:10:26;;;;;;;4.60;3.20;;;;;;;;;;4964249;28;20312;-71
2024/01/08 10:12:53;;;;;;;4.60;3.00;;;;;;;;;;4957781;28;20302;-73
2024/01/08 10:15:19;;;;;;;6.07;3.23;;;;;;;;;;4961941;28;20240;-73
2024/01/08 10:17:48;;;;;;;6.53;3.20;;;;;;;;;;4947842;28;20721;-73
2024/01/08 10:20:14;;;;;;;4.20;2.80;;;;;;;;;;4956779;28;20859;-73
2024/01/08 10:22:40;;;;;;;4.47;3.00;;;;;;;;;;4964008;28;20223;-73
2024/01/08 10:25:06;;;;;;;6.40;3.37;;;;;;;;;;4955597;28;20248;-73
2024/01/08 10:27:31;;;;;;;5.87;3.30;;;;;;;;;;4964790;28;20216;-73
2024/01/08 10:29:57;;;;;;;5.33;3.30;;;;;;;;;;4963873;28;20259;-71
2024/01/08 10:32:25;;;;;;;6.43;3.10;;;;;;;;;;4955195;28;20792;-74
2024/01/08 10:34:51;;;;;;;5.77;3.20;;;;;;;;;;4946413;28;20824;-73
2024/01/08 10:37:16;;;;;;;6.90;2.97;;;;;;;;;;4964185;28;20256;-72
2024/01/08 10:39:42;;;;;;;5.80;3.13;;;;;;;;;;4946168;28;20627;-73
2024/01/08 10:42:08;;;;;;;6.67;3.07;;;;;;;;;;4960490;28;20279;-73
2024/01/08 10:44:33;;;;;;;5.30;3.17;;;;;;;;;;4952565;28;20232;-72
2024/01/08 10:47:03;;;;;;;4.70;3.40;;;;;;;;;;4956441;28;20732;-73
2024/01/08 10:49:33;;;;;;;5.73;3.60;;;;;;;;;;4959243;28;20228;-73
2024/01/08 10:51:59;;;;;;;5.73;3.50;;;;;;;;;;4959233;28;20687;-74
2024/01/08 10:54:25;;;;;;;6.67;3.13;;;;;;;;;;4946005;28;20729;-72
2024/01/08 10:56:50;;;;;;;5.83;3.30;;;;;;;;;;4947707;28;20231;-74
2024/01/08 10:59:18;;;;;;;5.47;3.43;;;;;;;;;;4954329;28;20232;-73
2024/01/08 11:01:45;;;;;;;5.27;3.40;;;;;;;;;;4958421;28;20220;-73
2024/01/08 11:04:10;;;;;;;5.47;3.50;;;;;;;;;;4946129;28;20212;-74
2024/01/08 11:06:36;;;;;;;5.03;2.87;;;;;;;;;;4962890;28;20232;-74
2024/01/08 11:09:02;;;;;;;5.47;3.27;;;;;;;;;;4963962;28;20223;-73
2024/01/08 11:11:28;;;;;;;4.97;3.10;;;;;;;;;;4963174;28;20328;-72
2024/01/08 11:13:53;;;;;;;5.60;3.40;;;;;;;;;;4960707;28;20237;-72
2024/01/08 11:16:20;;;;;;;6.40;3.60;;;;;;;;;;4959711;28;20720;-73
2024/01/08 11:18:46;;;;;;;5.73;3.50;;;;;;;;;;4950276;28;20228;-73
2024/01/08 11:21:12;;;;;;;5.83;3.60;;;;;;;;;;4961762;28;20224;-74
2024/01/08 11:23:38;;;;;;;6.57;4.07;;;;;;;;;;4957819;28;20224;-72
2024/01/08 11:26:08;;;;;;;5.70;3.70;;;;;;;;;;4949506;28;20239;-73
2024/01/08 11:28:35;;;;;;;7.27;4.03;;;;;;;;;;4949954;28;20230;-72
2024/01/08 11:31:21;;;;;;;4.97;3.50;;;;;;;;;;4961933;28;20228;-74
2024/01/08 11:33:46;;;;;;;6.33;3.67;;;;;;;;;;4931033;28;20277;-73
2024/01/08 11:36:15;;;;;;;5.77;3.80;;;;;;;;;;4967045;28;20247;-72
2024/01/08 11:38:40;;;;;;;4.97;3.40;;;;;;;;;;4963067;28;20222;-73
2024/01/08 11:41:06;;;;;;;6.50;3.80;;;;;;;;;;4947370;28;20224;-73
2024/01/08 11:43:31;;;;;;;5.47;3.73;;;;;;;;;;4966762;28;20335;-73
2024/01/08 11:45:58;;;;;;;6.67;3.83;;;;;;;;;;4966566;28;20380;-73
2024/01/08 11:48:23;;;;;;;6.30;3.90;;;;;;;;;;4951029;28;20228;-73
2024/01/08 11:50:49;;;;;;;6.60;3.90;;;;;;;;;;4959081;28;20239;-72
2024/01/08 11:53:14;;;;;;;7.60;4.07;;;;;;;;;;4964854;28;20216;-73
2024/01/08 11:55:40;;;;;;;6.93;3.90;;;;;;;;;;4960821;28;20250;-74
2024/01/08 11:58:05;;;;;;;5.90;3.60;;;;;;;;;;4960471;28;20228;-73
2024/01/08 12:00:30;;;;;;;6.07;3.70;;;;;;;;;;4957755;28;20278;-73
2024/01/08 12:03:05;;;;;;;6.00;3.97;;;;;;;;;;4961726;28;20287;-73
2024/01/08 12:05:34;;;;;;;6.13;3.90;;;;;;;;;;4954952;28;20287;-73
2024/01/08 12:07:59;;;;;;;6.77;4.10;;;;;;;;;;4957147;28;20227;-73
2024/01/08 12:10:24;;;;;;;7.30;4.20;;;;;;;;;;4961073;28;20289;-74
2024/01/08 12:12:50;;;;;;;6.67;3.80;;;;;;;;;;4948881;28;20622;-74
2024/01/08 12:15:15;;;;;;;7.90;4.30;;;;;;;;;;4960308;28;20240;-74
2024/01/08 12:17:40;;;;;;;7.90;4.50;;;;;;;;;;4962813;28;20282;-75
2024/01/08 12:20:06;;;;;;;6.93;4.13;;;;;;;;;;4947708;28;20224;-74
2024/01/08 12:22:31;;;;;;;6.70;4.00;;;;;;;;;;4966020;28;20610;-74
2024/01/08 12:24:57;;;;;;;6.50;4.00;;;;;;;;;;4948298;28;20239;-75
2024/01/08 12:27:22;;;;;;;7.07;4.20;;;;;;;;;;4955661;28;20286;-74
2024/01/08 12:29:54;;;;;;;7.20;4.40;;;;;;;;;;4959366;28;20240;-74
2024/01/08 12:32:20;;;;;;;8.70;4.50;;;;;;;;;;4948198;28;20228;-73
2024/01/08 12:34:46;;;;;;;6.47;4.40;;;;;;;;;;4958720;28;20235;-74
2024/01/08 12:37:14;;;;;;;9.20;4.80;;;;;;;;;;4964188;28;20220;-74
2024/01/08 12:39:39;;;;;;;9.97;5.00;;;;;;;;;;4948938;28;20715;-74
2024/01/08 12:42:07;;;;;;;8.57;4.80;;;;;;;;;;4947807;28;20302;-73
2024/01/08 12:44:32;;;;;;;7.10;4.63;;;;;;;;;;4948275;28;20253;-72
2024/01/08 12:46:58;;;;;;;8.53;4.93;;;;;;;;;;4960663;28;20667;-75
2024/01/08 12:49:23;;;;;;;9.63;4.57;;;;;;;;;;4947867;28;21291;-73
2024/01/08 12:51:52;;;;;;;11.63;5.10;;;;;;;;;;4957717;28;20363;-74
2024/01/08 12:54:17;;;;;;;8.43;5.10;;;;;;;;;;4964251;28;20783;-75
2024/01/08 12:56:43;;;;;;;10.17;4.87;;;;;;;;;;4955432;28;20244;-73
2024/01/08 12:59:11;;;;;;;7.67;4.50;;;;;;;;;;4962535;28;20891;-73
2024/01/08 13:01:37;;;;;;;6.93;4.50;;;;;;;;;;4965949;28;20223;-74
2024/01/08 13:04:02;;;;;;;8.50;4.73;;;;;;;;;;4960969;28;20220;-73
2024/01/08 13:06:27;;;;;;;7.70;4.70;;;;;;;;;;4959783;28;20236;-73
2024/01/08 13:08:53;;;;;;;8.83;4.20;;;;;;;;;;4963215;28;20286;-74
2024/01/08 13:11:19;;;;;;;7.50;4.60;;;;;;;;;;4959139;28;20319;-73
2024/01/08 13:13:45;;;;;;;8.80;4.53;;;;;;;;;;4959356;28;20270;-73
2024/01/08 13:16:10;;;;;;;7.83;4.07;;;;;;;;;;4962543;28;20259;-73
2024/01/08 13:18:35;;;;;;;6.63;4.10;;;;;;;;;;4944439;28;20327;-74
2024/01/08 13:21:02;;;;;;;8.73;4.30;;;;;;;;;;4965495;28;20239;-74
2024/01/08 13:23:27;;;;;;;7.73;4.60;;;;;;;;;;4962444;28;20216;-72
2024/01/08 13:25:53;;;;;;;8.37;4.80;;;;;;;;;;4960874;28;20866;-73
2024/01/08 13:28:18;;;;;;;9.07;4.40;;;;;;;;;;4947217;28;20249;-73
2024/01/08 13:30:44;;;;;;;7.90;4.60;;;;;;;;;;4958890;28;20257;-73
2024/01/08 13:33:09;;;;;;;6.50;4.20;;;;;;;;;;4957742;28;20224;-74
2024/01/08 13:35:34;;;;;;;7.00;4.83;;;;;;;;;;4957816;28;20248;-74
2024/01/08 13:38:00;;;;;;;8.60;4.93;;;;;;;;;;4953149;28;20228;-73
2024/01/08 13:40:28;;;;;;;7.60;4.60;;;;;;;;;;4957254;28;20227;-73
2024/01/08 13:42:54;;;;;;;9.20;5.10;;;;;;;;;;4964419;28;20230;-73
2024/01/08 13:45:22;;;;;;;7.50;4.70;;;;;;;;;;4946936;28;20298;-73
2024/01/08 13:47:50;;;;;;;8.27;4.70;;;;;;;;;;4946810;28;20249;-73
2024/01/08 13:50:19;;;;;;;9.17;5.03;;;;;;;;;;4959498;28;20247;-74
2024/01/08 13:52:47;;;;;;;8.63;4.93;;;;;;;;;;4957121;28;20311;-73
2024/01/08 13:55:13;;;;;;;9.33;5.10;;;;;;;;;;4962903;28;20243;-72
2024/01/08 13:57:39;;;;;;;9.77;5.47;;;;;;;;;;4957380;28;20220;-73
2024/01/08 14:00:05;;;;;;;9.40;5.87;;;;;;;;;;4947171;28;20302;-75
2024/01/08 14:02:34;;;;;;;8.23;5.47;;;;;;;;;;4946830;28;20325;-73
2024/01/08 14:04:59;;;;;;;8.30;5.50;;;;;;;;;;4946991;28;20231;-73
2024/01/08 14:07:25;;;;;;;8.23;5.60;;;;;;;;;;4963358;28;20228;-73
2024/01/08 14:09:50;;;;;;;9.50;5.40;;;;;;;;;;4961123;28;20259;-73
2024/01/08 14:12:16;;;;;;;8.03;5.07;;;;;;;;;;4957531;28;20230;-74
2024/01/08 14:14:41;;;;;;;8.67;5.20;;;;;;;;;;4963588;28;20244;-73
2024/01/08 14:17:07;;;;;;;6.63;4.70;;;;;;;;;;4945996;28;20247;-73
2024/01/08 14:19:33;;;;;;;8.83;4.93;;;;;;;;;;4947522;28;20232;-74
2024/01/08 14:21:59;;;;;;;8.50;5.20;;;;;;;;;;4944528;28;20286;-74
2024/01/08 14:24:24;;;;;;;8.33;5.30;;;;;;;;;;4956413;28;20227;-73
2024/01/08 14:26:49;;;;;;;7.50;4.97;;;;;;;;;;4956365;28;20712;-73
2024/01/08 14:29:15;;;;;;;7.43;5.20;;;;;;;;;;4959218;28;20220;-74
2024/01/08 14:31:41;;;;;;;7.63;4.83;;;;;;;;;;4947036;28;20223;-72